Terminal Aerodrome Forecast
Issued by NWS St Louis, MO

Home | Current Version | Previous Version | Text Only | Print | Product List | Glossary On
Versions: 1 2 3 4 5 6 7 8 9 10 11 12 13
000
FTUS43 KLSX 250532
TAFCOU
TAF
KCOU 250532Z 2506/2606 30017G24KT P6SM OVC025
     FM250900 31017G24KT P6SM OVC035
     FM251200 31014G21KT P6SM BKN060
     FM251400 31014G22KT P6SM SCT100
     FM252200 31008KT P6SM FEW250
     FM260100 VRB03KT P6SM FEW250=

USA.gov is the U.S. government's official web portal to all federal, state and local government web resources and services.